Time;durP1;ratioP1;P1;durP2;ratioP2;P2;SDS_P1;SDS_P2;PMS_P1;PMS_P2;Temp;Humidity;BMP_temperature;BMP_pressure;BME280_temperature;BME280_humidity;BME280_pressure;Samples;Min_cycle;Max_cycle;Signal;HPM_P1;HPM_P2
2022/03/22 00:02:23;;;;;;;12.00;8.63;;;;;;;20.58;44.13;102943.28;5056693;28;20361;-63
2022/03/22 00:04:49;;;;;;;13.05;8.60;;;;;;;20.60;44.25;102952.00;5055525;28;20108;-63
2022/03/22 00:07:15;;;;;;;13.93;8.70;;;;;;;20.57;44.08;102954.84;5056345;28;20468;-63
2022/03/22 00:09:40;;;;;;;12.80;9.27;;;;;;;20.55;43.97;102955.84;5056177;28;20044;-63
2022/03/22 00:12:07;;;;;;;12.38;8.63;;;;;;;20.54;44.36;102957.66;5055288;28;20049;-63
2022/03/22 00:14:33;;;;;;;15.68;9.07;;;;;;;20.52;44.21;102954.25;5056521;28;20029;-62
2022/03/22 00:16:58;;;;;;;11.48;8.70;;;;;;;20.49;43.99;102954.44;5056391;28;20024;-62
2022/03/22 00:19:23;;;;;;;12.80;9.20;;;;;;;20.48;44.28;102955.38;5055489;28;20380;-62
2022/03/22 00:21:50;;;;;;;13.15;9.10;;;;;;;20.44;44.31;102949.41;5055744;28;20021;-62
2022/03/22 00:24:15;;;;;;;12.88;8.65;;;;;;;20.44;44.01;102956.47;5055911;28;20392;-62
2022/03/22 00:26:41;;;;;;;12.85;8.60;;;;;;;20.40;44.08;102955.81;5055174;28;20104;-62
2022/03/22 00:29:06;;;;;;;11.38;8.75;;;;;;;20.38;44.34;102957.69;5056437;28;20029;-62
2022/03/22 00:31:31;;;;;;;12.35;8.57;;;;;;;20.37;44.32;102957.78;5055899;28;20104;-63
2022/03/22 00:33:56;;;;;;;12.55;9.43;;;;;;;20.34;44.15;102960.59;5055555;28;20456;-62
2022/03/22 00:36:22;;;;;;;12.85;9.63;;;;;;;20.31;44.58;102958.97;5056064;28;20056;-62
2022/03/22 00:38:48;;;;;;;12.90;9.25;;;;;;;20.27;44.39;102960.97;5054727;28;20116;-63
2022/03/22 00:41:16;;;;;;;13.30;9.25;;;;;;;20.23;44.23;102961.22;5056290;28;20056;-62
2022/03/22 00:43:42;;;;;;;12.30;8.82;;;;;;;20.23;44.22;102963.88;5055639;28;20032;-62
2022/03/22 00:46:07;;;;;;;14.48;9.18;;;;;;;20.23;44.48;102969.16;5054905;28;20422;-62
2022/03/22 00:48:33;;;;;;;12.73;8.90;;;;;;;20.21;44.32;102965.75;5055780;28;20079;-62
2022/03/22 00:50:58;;;;;;;12.25;9.63;;;;;;;20.19;44.40;102967.66;5055560;28;20345;-63
2022/03/22 00:53:24;;;;;;;13.95;9.32;;;;;;;20.16;44.44;102967.81;5054765;28;20021;-62
2022/03/22 00:55:49;;;;;;;13.77;9.48;;;;;;;20.12;44.46;102961.81;5055312;28;20070;-62
2022/03/22 00:58:15;;;;;;;12.90;8.65;;;;;;;20.12;44.49;102961.81;5055245;28;20021;-62
2022/03/22 01:00:41;;;;;;;11.50;9.27;;;;;;;20.10;44.28;102966.34;5054316;28;20163;-62
2022/03/22 01:03:09;;;;;;;12.65;9.20;;;;;;;20.07;44.40;102956.78;5054733;28;20071;-62
2022/03/22 01:05:35;;;;;;;12.75;8.77;;;;;;;20.07;44.23;102963.88;5055040;28;20024;-62
2022/03/22 01:08:06;;;;;;;12.38;9.05;;;;;;;20.03;44.22;102963.22;5054523;28;20040;-63
2022/03/22 01:10:34;;;;;;;12.10;8.75;;;;;;;20.04;44.54;102967.53;5055455;28;20032;-62
2022/03/22 01:13:00;;;;;;;12.77;9.18;;;;;;;20.04;44.19;102967.53;5055043;28;20041;-62
2022/03/22 01:15:32;;;;;;;11.70;8.50;;;;;;;20.03;44.41;102972.94;5054444;28;20025;-62
2022/03/22 01:17:58;;;;;;;11.35;8.63;;;;;;;20.02;44.29;102972.06;5054956;28;20036;-63
2022/03/22 01:20:27;;;;;;;12.75;9.00;;;;;;;19.98;44.30;102967.03;5055011;28;20021;-63
2022/03/22 01:22:54;;;;;;;12.60;8.73;;;;;;;19.98;44.28;102967.03;5053895;28;20487;-63
2022/03/22 01:25:27;;;;;;;12.43;8.65;;;;;;;19.97;44.32;102966.19;5055060;28;20029;-62
2022/03/22 01:27:54;;;;;;;11.48;7.88;;;;;;;19.96;44.33;102969.78;5054085;28;20025;-63
2022/03/22 01:30:21;;;;;;;13.25;9.45;;;;;;;19.95;44.16;102968.09;5054952;28;20082;-63
2022/03/22 01:32:47;;;;;;;13.98;9.55;;;;;;;19.92;44.28;102962.97;5054519;28;20025;-63
2022/03/22 01:35:13;;;;;;;13.27;8.85;;;;;;;19.91;44.45;102971.81;5054042;28;20027;-62
2022/03/22 01:37:39;;;;;;;15.00;9.80;;;;;;;19.91;44.45;102971.81;5054395;28;20112;-63
2022/03/22 01:40:06;;;;;;;12.73;8.85;;;;;;;19.89;44.44;102973.72;5054811;28;20025;-62
2022/03/22 01:42:32;;;;;;;10.98;8.40;;;;;;;19.86;44.29;102972.06;5052774;28;20024;-62
2022/03/22 01:44:58;;;;;;;12.68;9.80;;;;;;;19.86;44.20;102974.72;5054346;28;20063;-62
2022/03/22 01:47:23;;;;;;;11.68;8.35;;;;;;;19.86;44.30;102969.44;5054566;28;20049;-63
2022/03/22 01:49:50;;;;;;;12.07;8.48;;;;;;;19.84;44.03;102971.31;5053569;28;20033;-62
2022/03/22 01:52:19;;;;;;;12.77;9.23;;;;;;;19.84;44.03;102970.47;5054365;28;20472;-63
2022/03/22 01:54:45;;;;;;;11.25;9.05;;;;;;;19.83;44.32;102972.25;5054045;28;20458;-62
2022/03/22 01:57:10;;;;;;;12.55;8.82;;;;;;;19.83;44.30;102969.59;5053766;28;20081;-63
2022/03/22 01:59:36;;;;;;;11.70;8.98;;;;;;;19.82;44.19;102969.69;5054066;28;20032;-62
2022/03/22 02:07:32;;;;;;;12.20;8.90;;;;;;;19.79;44.28;102961.91;5054644;28;20087;-63
2022/03/22 02:09:58;;;;;;;11.73;8.75;;;;;;;19.79;44.19;102959.25;5053967;28;20025;-63
2022/03/22 02:12:23;;;;;;;11.88;8.93;;;;;;;19.77;44.26;102969.09;5052727;28;20105;-63
2022/03/22 02:14:49;;;;;;;11.18;8.70;;;;;;;19.74;44.30;102959.47;5053629;28;20485;-62
2022/03/22 02:17:15;;;;;;;11.23;8.13;;;;;;;19.74;44.41;102954.19;5053310;28;20021;-62
2022/03/22 02:19:41;;;;;;;12.55;7.95;;;;;;;19.72;44.26;102951.63;5053807;28;20052;-63
2022/03/22 02:22:13;;;;;;;14.00;8.75;;;;;;;19.73;44.25;102952.50;5053995;28;20017;-63
2022/03/22 02:24:39;;;;;;;10.98;7.70;;;;;;;19.71;44.10;102957.88;5052874;28;20029;-63
2022/03/22 02:27:06;;;;;;;11.35;8.30;;;;;;;19.70;43.93;102947.38;5053793;28;20368;-63
2022/03/22 02:29:31;;;;;;;11.70;8.48;;;;;;;19.69;44.08;102945.66;5053633;28;20044;-63
2022/03/22 02:31:57;;;;;;;11.48;8.25;;;;;;;19.65;44.22;102950.28;5052739;28;20021;-63
2022/03/22 02:34:22;;;;;;;12.52;8.13;;;;;;;19.67;44.02;102951.03;5053572;28;20036;-63
2022/03/22 02:36:47;;;;;;;11.02;7.85;;;;;;;19.63;44.10;102948.63;5053269;28;20033;-63
2022/03/22 02:39:13;;;;;;;10.60;7.83;;;;;;;19.64;44.36;102947.72;5052726;28;20057;-63
2022/03/22 02:41:38;;;;;;;10.38;8.05;;;;;;;19.65;44.06;102952.06;5053151;28;20738;-63
2022/03/22 02:44:04;;;;;;;9.35;7.50;;;;;;;19.64;44.22;102950.34;5053406;28;20017;-63
2022/03/22 02:46:29;;;;;;;11.65;9.00;;;;;;;19.63;44.17;102953.94;5052670;28;20025;-63
2022/03/22 02:48:54;;;;;;;10.45;7.95;;;;;;;19.59;44.06;102947.97;5053046;28;20075;-63
2022/03/22 02:51:20;;;;;;;11.48;7.90;;;;;;;19.61;44.32;102953.16;5053293;28;20197;-63
2022/03/22 02:53:46;;;;;;;10.45;7.63;;;;;;;19.59;43.99;102953.25;5052377;28;20029;-63
2022/03/22 02:56:12;;;;;;;11.05;8.25;;;;;;;19.55;43.87;102952.56;5053302;28;20021;-63
2022/03/22 02:58:37;;;;;;;12.75;8.05;;;;;;;19.58;44.16;102954.19;5052699;28;20169;-63
2022/03/22 03:01:04;;;;;;;12.15;8.27;;;;;;;19.56;44.25;102953.41;5052698;28;20021;-63
2022/03/22 03:03:29;;;;;;;10.65;8.20;;;;;;;19.56;44.07;102958.72;5053272;28;20042;-63
2022/03/22 03:05:54;;;;;;;12.63;7.47;;;;;;;19.54;44.23;102952.66;5052708;28;20107;-63
2022/03/22 03:08:19;;;;;;;14.48;7.80;;;;;;;19.54;44.13;102956.13;5052551;28;20029;-63
2022/03/22 03:10:46;;;;;;;11.32;8.10;;;;;;;19.53;44.07;102959.72;5052813;28;20079;-63
2022/03/22 03:13:12;;;;;;;9.98;7.53;;;;;;;19.53;44.28;102959.72;5052690;28;20060;-63
2022/03/22 03:15:38;;;;;;;10.77;7.80;;;;;;;19.51;43.93;102958.94;5052017;28;20032;-63
2022/03/22 03:18:04;;;;;;;13.55;8.27;;;;;;;19.49;43.91;102955.53;5052974;28;20028;-62
2022/03/22 03:20:29;;;;;;;12.40;7.93;;;;;;;19.50;43.85;102959.91;5052317;28;20021;-63
2022/03/22 03:22:55;;;;;;;12.25;7.65;;;;;;;19.48;44.20;102963.56;5052680;28;20059;-63
2022/03/22 03:25:20;;;;;;;9.85;7.20;;;;;;;19.48;43.99;102960.91;5051993;28;20044;-63
2022/03/22 03:27:46;;;;;;;10.57;7.22;;;;;;;19.49;43.90;102962.63;5051814;28;20036;-63
2022/03/22 03:30:12;;;;;;;10.82;7.13;;;;;;;19.47;43.77;102960.06;5052886;28;20021;-63
2022/03/22 03:32:37;;;;;;;12.80;7.90;;;;;;;19.45;44.03;102959.28;5052693;28;20491;-63
2022/03/22 03:35:04;;;;;;;10.95;8.20;;;;;;;19.46;43.96;102965.44;5052105;28;20032;-63
2022/03/22 03:37:36;;;;;;;8.98;7.03;;;;;;;19.43;43.93;102962.97;5052602;28;20036;-63
2022/03/22 03:40:04;;;;;;;11.07;7.50;;;;;;;19.43;43.83;102966.44;5052738;28;20029;-63
2022/03/22 03:42:29;;;;;;;10.02;7.15;;;;;;;19.43;43.89;102979.66;5051709;28;20103;-63
2022/03/22 03:47:38;;;;;;;11.10;7.47;;;;;;;19.38;43.81;102979.06;5052614;28;20100;-62
2022/03/22 03:50:05;;;;;;;9.90;7.80;;;;;;;19.39;44.01;102975.47;5051837;28;20037;-62
2022/03/22 03:52:34;;;;;;;9.90;6.88;;;;;;;19.37;43.88;102982.63;5052619;28;20087;-63
2022/03/22 03:55:00;;;;;;;12.50;7.63;;;;;;;19.38;44.13;102981.72;5052437;28;20025;-63
2022/03/22 03:57:26;;;;;;;12.10;7.32;;;;;;;19.37;43.90;102982.63;5051845;28;20025;-63
2022/03/22 03:59:53;;;;;;;10.20;7.53;;;;;;;19.34;43.89;102991.59;5052309;28;20028;-63
2022/03/22 04:02:19;;;;;;;11.15;7.32;;;;;;;19.32;43.78;102988.16;5052374;28;20104;-63
2022/03/22 04:04:51;;;;;;;10.23;6.97;;;;;;;19.32;43.75;102995.25;5051431;28;20033;-63
2022/03/22 04:07:18;;;;;;;11.82;7.50;;;;;;;19.32;43.79;102992.59;5052336;28;20032;-63
2022/03/22 04:09:44;;;;;;;10.77;7.15;;;;;;;19.32;43.85;102993.44;5051514;28;20045;-63
2022/03/22 04:12:09;;;;;;;11.73;7.72;;;;;;;19.29;43.93;102993.59;5052281;28;20118;-63
2022/03/22 04:14:35;;;;;;;10.75;7.55;;;;;;;19.30;43.71;102994.47;5052184;28;20021;-63
2022/03/22 04:17:00;;;;;;;10.57;7.28;;;;;;;19.29;43.89;102993.59;5051533;28;20058;-63
2022/03/22 04:19:29;;;;;;;11.07;7.25;;;;;;;19.29;43.71;102996.25;5052501;28;20028;-63
2022/03/22 04:21:55;;;;;;;11.40;7.47;;;;;;;19.31;43.91;102997.03;5051940;28;20075;-63
2022/03/22 04:24:20;;;;;;;11.30;7.43;;;;;;;19.35;43.85;103000.38;5051708;28;20029;-63
2022/03/22 04:26:47;;;;;;;11.23;7.07;;;;;;;19.37;43.96;102996.69;5051916;28;20055;-63
2022/03/22 04:34:44;;;;;;;9.98;7.05;;;;;;;19.48;43.63;102993.50;5051846;28;20044;-63
2022/03/22 04:37:14;;;;;;;10.32;6.63;;;;;;;19.51;43.35;102993.34;5055079;28;20103;-65
2022/03/22 04:39:44;;;;;;;10.77;6.97;;;;;;;19.53;43.25;102985.31;5054890;28;20425;-63
2022/03/22 04:42:10;;;;;;;10.23;7.25;;;;;;;19.55;43.40;102989.59;5055944;28;20028;-64
2022/03/22 04:44:37;;;;;;;10.40;6.88;;;;;;;19.57;42.99;102992.16;5055521;28;20021;-64
2022/03/22 04:47:02;;;;;;;11.02;7.35;;;;;;;19.57;42.98;102994.81;5054841;28;20036;-63
2022/03/22 04:49:28;;;;;;;12.07;7.85;;;;;;;19.59;43.18;102995.56;5055664;28;20025;-63
2022/03/22 04:57:23;;;;;;;9.88;6.85;;;;;;;19.62;42.42;103011.28;5055584;28;20036;-63
2022/03/22 04:59:49;;;;;;;10.15;7.00;;;;;;;19.61;42.76;103001.63;5054585;28;20104;-63
2022/03/22 05:02:15;;;;;;;9.63;6.75;;;;;;;19.62;42.42;103007.78;5055542;28;20082;-63
2022/03/22 05:04:40;;;;;;;10.43;6.70;;;;;;;19.60;42.59;103007.88;5055167;28;20029;-62
2022/03/22 05:07:06;;;;;;;10.70;6.90;;;;;;;19.61;42.42;103011.34;5055309;28;20023;-63
2022/03/22 05:09:31;;;;;;;9.97;7.17;;;;;;;19.60;42.52;103018.44;5055394;28;20112;-63
2022/03/22 05:11:58;;;;;;;9.55;6.70;;;;;;;19.58;42.43;103009.72;5054919;28;20270;-63
2022/03/22 05:14:24;;;;;;;11.40;7.15;;;;;;;19.55;42.42;103007.22;5054609;28;20433;-63
2022/03/22 05:16:50;;;;;;;9.30;6.82;;;;;;;19.56;42.85;103014.25;5055162;28;20059;-63
2022/03/22 05:19:16;;;;;;;10.50;6.57;;;;;;;19.56;43.31;103015.09;5055107;28;20025;-63
2022/03/22 05:21:42;;;;;;;12.38;6.82;;;;;;;19.60;42.88;103022.88;5053959;28;20472;-63
2022/03/22 05:24:08;;;;;;;9.85;7.10;;;;;;;19.62;42.89;103026.31;5055117;28;20032;-63
2022/03/22 05:26:34;;;;;;;9.73;6.57;;;;;;;19.63;43.04;103026.22;5054555;28;20139;-63
2022/03/22 05:28:59;;;;;;;10.70;6.45;;;;;;;19.65;43.04;103032.28;5054343;28;20492;-63
2022/03/22 05:31:25;;;;;;;9.32;6.50;;;;;;;19.65;42.95;103034.91;5055001;28;20029;-63
2022/03/22 05:33:50;;;;;;;10.15;6.78;;;;;;;19.67;43.16;103033.03;5054545;28;20476;-63
2022/03/22 05:36:15;;;;;;;8.43;6.10;;;;;;;19.66;42.66;103033.13;5053851;28;20049;-63
2022/03/22 05:38:41;;;;;;;10.55;7.20;;;;;;;19.69;42.55;103035.59;5054174;28;20396;-63
2022/03/22 05:41:08;;;;;;;12.63;7.28;;;;;;;19.69;42.44;103035.59;5053724;28;20025;-63
2022/03/22 05:43:34;;;;;;;10.43;6.53;;;;;;;19.70;42.34;103042.63;5054479;28;20020;-63
2022/03/22 05:46:00;;;;;;;10.07;6.75;;;;;;;19.69;42.42;103041.78;5054649;28;20075;-62
2022/03/22 05:48:26;;;;;;;11.27;6.93;;;;;;;19.70;42.07;103039.97;5052745;28;20071;-62
2022/03/22 05:50:51;;;;;;;9.02;6.47;;;;;;;19.69;42.07;103041.78;5053934;28;20017;-62
2022/03/22 05:53:17;;;;;;;9.60;6.72;;;;;;;19.70;41.87;103032.03;5054216;28;20036;-62
2022/03/22 05:55:42;;;;;;;10.07;6.63;;;;;;;19.66;41.96;103035.75;5053174;28;20021;-61
2022/03/22 05:58:09;;;;;;;10.00;6.63;;;;;;;19.68;42.18;103034.75;5054139;28;20025;-62
2022/03/22 06:00:35;;;;;;;9.40;6.85;;;;;;;19.65;42.04;103034.06;5054033;28;20025;-62
2022/03/22 06:03:00;;;;;;;11.65;6.95;;;;;;;19.64;41.84;103038.50;5053537;28;20025;-62
2022/03/22 06:05:28;;;;;;;9.70;7.00;;;;;;;19.64;41.85;103042.94;5054045;28;20353;-63
2022/03/22 06:07:55;;;;;;;10.95;6.30;;;;;;;19.62;42.32;103043.03;5053818;28;20040;-63
2022/03/22 06:10:20;;;;;;;10.57;6.93;;;;;;;19.62;42.80;103044.81;5053209;28;20111;-62
2022/03/22 06:12:48;;;;;;;12.25;7.05;;;;;;;19.63;43.42;103043.88;5053363;28;20544;-63
2022/03/22 06:15:20;;;;;;;9.65;6.68;;;;;;;19.68;43.60;103052.44;5053746;28;20487;-62
2022/03/22 06:17:52;;;;;;;10.60;6.07;;;;;;;19.71;43.85;103052.25;5052710;28;20029;-62
2022/03/22 06:20:21;;;;;;;9.48;6.22;;;;;;;19.73;43.78;103048.59;5053975;28;20036;-62
2022/03/22 06:22:47;;;;;;;8.57;6.07;;;;;;;19.77;43.93;103053.75;5053178;28;20024;-62
2022/03/22 06:25:13;;;;;;;9.82;6.25;;;;;;;19.78;43.62;103050.19;5052879;28;20021;-62
2022/03/22 06:27:39;;;;;;;10.52;6.15;;;;;;;19.81;43.84;103058.78;5053370;28;20358;-62
2022/03/22 06:30:06;;;;;;;8.70;5.90;;;;;;;19.84;43.89;103057.78;5053628;28;20415;-63
2022/03/22 06:32:42;;;;;;;10.02;5.53;;;;;;;19.86;43.88;103062.03;5052727;28;20029;-63
2022/03/22 06:35:10;;;;;;;8.88;5.55;;;;;;;19.87;43.90;103044.41;5053471;28;20067;-63
2022/03/22 06:37:36;;;;;;;8.80;5.53;;;;;;;19.90;43.85;103060.94;5052227;28;20032;-63
2022/03/22 06:40:02;;;;;;;10.15;5.95;;;;;;;19.93;43.84;103054.63;5053445;28;20021;-63
2022/03/22 06:42:27;;;;;;;8.20;5.65;;;;;;;19.97;44.05;103050.88;5053244;28;20024;-63
2022/03/22 06:44:52;;;;;;;8.18;5.28;;;;;;;19.99;43.93;103050.81;5052122;28;20488;-63
2022/03/22 06:47:18;;;;;;;7.75;5.65;;;;;;;20.03;43.77;103057.66;5053222;28;20021;-63
2022/03/22 06:49:43;;;;;;;10.15;5.97;;;;;;;20.06;43.82;103063.63;5052675;28;20036;-63
2022/03/22 06:52:09;;;;;;;8.77;5.13;;;;;;;20.08;43.75;103061.72;5052307;28;20032;-63
2022/03/22 06:54:34;;;;;;;8.77;5.25;;;;;;;20.12;43.70;103057.13;5052752;28;20081;-63
2022/03/22 06:57:01;;;;;;;9.27;5.95;;;;;;;20.15;43.60;103066.69;5053223;28;20033;-63
2022/03/22 06:59:26;;;;;;;10.07;6.10;;;;;;;20.18;43.95;103070.03;5052040;28;20406;-63
2022/03/22 07:01:51;;;;;;;7.70;5.00;;;;;;;20.20;43.84;103069.94;5052791;28;20021;-63
2022/03/22 07:04:17;;;;;;;10.05;5.68;;;;;;;20.22;43.71;103074.22;5052913;28;20032;-62
2022/03/22 07:06:42;;;;;;;7.93;5.40;;;;;;;20.23;43.69;103070.63;5052000;28;20379;-62
2022/03/22 07:09:07;;;;;;;9.82;5.60;;;;;;;20.25;43.59;103071.41;5052887;28;20281;-63
2022/03/22 07:11:49;;;;;;;10.35;6.22;;;;;;;20.26;43.71;103069.59;5052923;28;20033;-63
2022/03/22 07:14:16;;;;;;;9.38;5.95;;;;;;;20.30;43.98;103073.81;5052356;28;20139;-62
2022/03/22 07:16:41;;;;;;;10.75;5.95;;;;;;;20.30;42.65;103077.28;5052618;28;20021;-62
2022/03/22 07:19:07;;;;;;;8.40;5.85;;;;;;;20.29;43.24;103074.72;5052701;28;20025;-62
2022/03/22 07:21:32;;;;;;;9.52;6.05;;;;;;;20.28;43.39;103073.88;5052143;28;20017;-63
2022/03/22 07:23:57;;;;;;;7.43;5.47;;;;;;;20.25;43.85;103074.06;5052294;28;20021;-63
2022/03/22 07:26:23;;;;;;;8.85;5.40;;;;;;;20.22;43.92;103076.00;5052719;28;20373;-62
2022/03/22 07:28:48;;;;;;;8.18;5.50;;;;;;;20.19;44.15;103074.38;5051646;28;20029;-62
2022/03/22 07:31:14;;;;;;;9.70;5.80;;;;;;;20.19;44.33;103076.19;5052488;28;20028;-63
2022/03/22 07:33:39;;;;;;;9.07;5.70;;;;;;;20.17;44.61;103078.03;5051601;28;20069;-63
2022/03/22 07:36:05;;;;;;;8.77;5.95;;;;;;;20.16;44.62;103071.91;5052696;28;20040;-63
2022/03/22 07:38:30;;;;;;;9.10;5.50;;;;;;;20.18;44.59;103074.47;5052460;28;20028;-63
2022/03/22 07:40:56;;;;;;;11.90;5.63;;;;;;;20.19;44.87;103084.13;5051560;28;20032;-62
2022/03/22 07:43:21;;;;;;;8.48;5.43;;;;;;;20.20;44.66;103084.06;5052540;28;20112;-63
2022/03/22 07:45:46;;;;;;;8.90;5.28;;;;;;;20.26;44.72;103083.69;5052224;28;20028;-61
2022/03/22 07:48:12;;;;;;;8.80;5.55;;;;;;;20.28;44.47;103076.53;5051681;28;20403;-61
2022/03/22 07:53:22;;;;;;;9.20;5.18;;;;;;;20.29;44.85;103082.66;5052768;28;20094;-61
2022/03/22 07:55:47;;;;;;;8.68;5.07;;;;;;;20.25;44.73;103078.47;5051370;28;20479;-61
2022/03/22 07:58:12;;;;;;;8.35;5.05;;;;;;;20.29;45.00;103085.31;5052243;28;20108;-61
2022/03/22 08:00:41;;;;;;;7.13;4.82;;;;;;;20.30;44.80;103082.59;5051978;28;20504;-61
2022/03/22 08:03:10;;;;;;;10.20;5.82;;;;;;;20.33;45.20;103089.53;5051800;28;20035;-61
2022/03/22 08:05:37;;;;;;;11.13;5.60;;;;;;;20.36;45.02;103089.34;5052549;28;20105;-61
2022/03/22 08:08:04;;;;;;;10.35;5.75;;;;;;;20.40;45.12;103090.03;5052905;28;20403;-62
2022/03/22 08:10:31;;;;;;;9.00;5.57;;;;;;;20.43;45.00;103092.50;5052446;28;20024;-61
2022/03/22 08:12:58;;;;;;;9.52;5.60;;;;;;;20.42;45.04;103083.69;5055948;28;20549;-61
2022/03/22 08:15:23;;;;;;;11.10;5.90;;;;;;;20.48;44.78;103093.09;5056643;28;20021;-61
2022/03/22 08:17:48;;;;;;;9.90;5.65;;;;;;;20.51;44.91;103082.34;5055477;28;20025;-62
2022/03/22 08:20:14;;;;;;;9.90;6.00;;;;;;;20.58;44.70;103096.91;5056039;28;20029;-62
2022/03/22 08:23:03;;;;;;;9.25;5.18;;;;;;;20.62;44.52;103085.22;5055914;28;20293;-62
2022/03/22 08:25:31;;;;;;;8.88;5.65;;;;;;;20.63;44.69;103099.31;5056151;28;20115;-61
2022/03/22 08:27:59;;;;;;;8.73;5.90;;;;;;;20.64;44.46;103098.41;5056078;28;20048;-62
2022/03/22 08:30:25;;;;;;;8.82;5.53;;;;;;;20.59;44.41;103092.50;5055470;28;20035;-62
2022/03/22 08:32:55;;;;;;;7.13;5.07;;;;;;;20.56;44.38;103100.63;5055967;28;20411;-62
2022/03/22 08:35:23;;;;;;;8.93;5.00;;;;;;;20.58;44.61;103096.91;5056043;28;20464;-60
2022/03/22 08:37:48;;;;;;;10.07;5.57;;;;;;;20.59;44.34;103088.03;5054754;28;20043;-61
2022/03/22 08:40:14;;;;;;;9.45;5.30;;;;;;;20.65;44.07;103090.38;5055800;28;20017;-61
2022/03/22 08:42:44;;;;;;;9.77;5.78;;;;;;;20.71;43.86;103088.31;5055298;28;20025;-60
2022/03/22 08:45:12;;;;;;;8.85;5.50;;;;;;;20.72;44.15;103090.88;5055233;28;20027;-62
2022/03/22 08:47:37;;;;;;;9.10;5.35;;;;;;;20.70;44.47;103098.06;5055536;28;20029;-63
2022/03/22 08:50:05;;;;;;;11.80;5.28;;;;;;;20.77;44.71;103090.63;5055806;28;20033;-62
2022/03/22 08:52:31;;;;;;;9.32;5.55;;;;;;;20.89;44.59;103094.38;5054842;28;20096;-63
2022/03/22 08:54:56;;;;;;;9.77;5.63;;;;;;;20.96;44.32;103098.38;5055415;28;20078;-62
2022/03/22 08:57:22;;;;;;;7.82;5.00;;;;;;;21.03;44.29;103097.06;5055645;28;20033;-63
2022/03/22 08:59:47;;;;;;;10.73;5.80;;;;;;;21.09;43.69;103093.19;5054562;28;20469;-64
2022/03/22 09:02:15;;;;;;;8.90;5.45;;;;;;;21.13;43.66;103094.75;5055568;28;20032;-63
2022/03/22 09:07:24;;;;;;;9.47;5.43;;;;;;;21.20;43.55;103096.94;5055307;28;20096;-64
2022/03/22 09:09:50;;;;;;;8.95;5.78;;;;;;;21.18;43.96;103096.16;5055158;28;20282;-61
2022/03/22 09:12:15;;;;;;;8.32;5.30;;;;;;;21.12;43.90;103091.22;5054459;28;20047;-61
2022/03/22 09:14:40;;;;;;;11.70;5.57;;;;;;;21.08;44.21;103095.00;5054832;28;20029;-62
2022/03/22 09:17:06;;;;;;;10.57;5.72;;;;;;;21.03;44.11;103086.47;5055016;28;20278;-60
2022/03/22 09:19:34;;;;;;;9.68;5.35;;;;;;;20.99;44.07;103093.72;5054287;28;20063;-61
2022/03/22 09:22:00;;;;;;;9.57;5.82;;;;;;;20.95;44.15;103091.34;5054117;28;20546;-61
2022/03/22 09:24:25;;;;;;;13.38;6.13;;;;;;;20.94;44.31;103094.97;5054672;28;20043;-61
2022/03/22 09:26:50;;;;;;;9.50;5.40;;;;;;;20.90;44.56;103088.97;5053925;28;20057;-61
2022/03/22 09:29:16;;;;;;;9.40;5.57;;;;;;;20.86;44.31;103082.16;5054869;28;20075;-61
2022/03/22 09:31:41;;;;;;;10.50;5.15;;;;;;;20.87;44.39;103081.22;5054528;28;20048;-61
2022/03/22 09:34:11;;;;;;;10.93;5.30;;;;;;;20.87;44.27;103089.16;5054078;28;20017;-61
2022/03/22 09:36:37;;;;;;;10.73;5.40;;;;;;;20.88;44.57;103093.50;5054567;28;20305;-61
2022/03/22 09:39:04;;;;;;;8.63;5.35;;;;;;;20.88;44.47;103084.72;5054758;28;20476;-61
2022/03/22 09:41:30;;;;;;;9.00;5.05;;;;;;;20.88;44.59;103087.34;5053923;28;20033;-61
2022/03/22 09:43:56;;;;;;;11.85;5.15;;;;;;;20.87;44.53;103083.88;5054339;28;20028;-61
2022/03/22 09:46:22;;;;;;;9.50;5.07;;;;;;;20.87;44.42;103083.88;5054569;28;20029;-60
2022/03/22 09:48:48;;;;;;;8.82;5.75;;;;;;;20.82;44.63;103076.19;5053407;28;20021;-61
2022/03/22 09:54:00;;;;;;;8.95;5.40;;;;;;;20.82;44.82;103084.13;5054458;28;20094;-61
2022/03/22 09:56:30;;;;;;;8.48;5.45;;;;;;;20.81;45.04;103081.56;5053694;28;20523;-61
2022/03/22 09:58:55;;;;;;;10.30;5.75;;;;;;;20.80;45.00;103086.00;5053857;28;20077;-62
2022/03/22 10:01:21;;;;;;;8.70;5.53;;;;;;;20.78;44.97;103077.28;5053398;28;20528;-61
2022/03/22 10:04:05;;;;;;;8.57;5.20;;;;;;;20.79;45.00;103078.13;5054151;28;20036;-63
2022/03/22 10:06:32;;;;;;;9.02;5.30;;;;;;;20.90;45.21;103085.47;5054359;28;20021;-62
2022/03/22 10:08:57;;;;;;;11.20;5.65;;;;;;;21.00;44.97;103070.75;5053160;28;20533;-63
2022/03/22 10:11:36;;;;;;;10.13;5.55;;;;;;;21.08;44.54;103079.09;5054240;28;20104;-64
2022/03/22 10:14:03;;;;;;;8.85;5.05;;;;;;;21.14;44.61;103073.44;5053880;28;20044;-63
2022/03/22 10:16:28;;;;;;;8.55;5.35;;;;;;;21.17;44.18;103075.03;5053414;28;20388;-63
2022/03/22 10:18:53;;;;;;;11.57;5.80;;;;;;;21.20;44.78;103070.44;5053648;28;20029;-62
2022/03/22 10:21:19;;;;;;;9.57;5.40;;;;;;;21.22;44.64;103072.09;5053940;28;20381;-62
2022/03/22 10:23:52;;;;;;;10.05;5.55;;;;;;;21.24;44.33;103071.09;5052712;28;20021;-60
2022/03/22 10:26:18;;;;;;;9.45;5.10;;;;;;;21.24;44.72;103059.59;5053999;28;20036;-62
2022/03/22 10:28:51;;;;;;;8.10;5.63;;;;;;;21.25;43.64;103064.81;5053457;28;20029;-63
2022/03/22 10:31:17;;;;;;;8.43;5.77;;;;;;;21.24;44.30;103065.78;5053102;28;20116;-63
2022/03/22 10:33:52;;;;;;;10.30;5.18;;;;;;;21.25;44.53;103062.16;5053153;28;20112;-62
2022/03/22 10:36:21;;;;;;;9.70;6.03;;;;;;;21.27;44.77;103056.78;5053744;28;20025;-64
2022/03/22 10:38:54;;;;;;;9.32;5.28;;;;;;;21.30;44.58;103061.88;5052534;28;20052;-63
2022/03/22 10:41:28;;;;;;;12.02;6.05;;;;;;;21.31;44.90;103061.81;5053609;28;20392;-63
2022/03/22 10:44:03;;;;;;;10.05;5.88;;;;;;;21.32;44.95;103052.91;5052566;28;20043;-66
2022/03/22 10:46:29;;;;;;;9.27;5.57;;;;;;;21.32;44.94;103052.06;5053303;28;20053;-66
2022/03/22 10:49:02;;;;;;;10.55;5.65;;;;;;;21.35;44.74;103055.38;5052872;28;20040;-64
2022/03/22 10:51:35;;;;;;;9.15;5.70;;;;;;;21.35;43.94;103046.56;5052275;28;20087;-63
2022/03/22 10:54:00;;;;;;;8.93;6.35;;;;;;;21.33;44.38;103059.06;5053457;28;20083;-61
2022/03/22 10:56:26;;;;;;;8.20;5.75;;;;;;;21.30;44.75;103048.63;5053470;28;20025;-60
2022/03/22 10:58:57;;;;;;;9.05;6.05;;;;;;;21.27;45.05;103055.00;5052407;28;20059;-60
2022/03/22 11:01:24;;;;;;;8.98;5.80;;;;;;;21.26;45.16;103050.63;5053283;28;20426;-63
2022/03/22 11:03:56;;;;;;;10.95;6.10;;;;;;;21.29;45.09;103050.44;5052876;28;20028;-64
2022/03/22 11:06:25;;;;;;;9.15;5.85;;;;;;;21.35;45.06;103049.22;5050646;28;20103;-62
2022/03/22 11:08:50;;;;;;;10.98;5.90;;;;;;;21.35;45.17;103049.22;5052522;28;20063;-62
2022/03/22 11:11:16;;;;;;;8.82;5.72;;;;;;;21.35;45.06;103047.41;5038462;28;20056;-61
2022/03/22 11:13:41;;;;;;;9.30;6.07;;;;;;;21.36;45.46;103046.50;5031593;28;20084;-62
2022/03/22 11:16:07;;;;;;;8.73;5.88;;;;;;;21.36;43.17;103041.19;5032808;28;20147;-62
2022/03/22 11:18:33;;;;;;;13.43;7.55;;;;;;;21.35;43.03;103039.47;5032899;28;20108;-62
2022/03/22 11:21:01;;;;;;;9.88;6.40;;;;;;;21.30;44.69;103038.03;5032332;28;20083;-62
2022/03/22 11:23:31;;;;;;;10.38;6.68;;;;;;;21.29;45.14;103044.28;5032706;28;20018;-62
2022/03/22 11:26:10;;;;;;;9.43;6.13;;;;;;;21.26;45.60;103037.38;5031840;28;20025;-61
2022/03/22 11:28:38;;;;;;;10.30;6.30;;;;;;;21.26;45.69;103033.88;5032686;28;20045;-61
2022/03/22 11:31:05;;;;;;;9.50;5.45;;;;;;;21.24;45.71;103031.31;5032854;28;20024;-61
2022/03/22 11:36:20;;;;;;;10.95;6.70;;;;;;;21.20;45.21;103027.13;5033177;28;20068;-61
2022/03/22 11:38:54;;;;;;;9.52;6.03;;;;;;;21.27;45.46;103028.47;5032311;28;20026;-63
2022/03/22 11:44:21;;;;;;;8.60;5.22;;;;;;;21.44;44.83;103023.94;5032987;28;20076;-63
2022/03/22 11:46:59;;;;;;;9.85;6.35;;;;;;;21.46;44.60;103022.03;5030979;28;20452;-62
2022/03/22 11:49:25;;;;;;;11.32;6.45;;;;;;;21.43;44.60;103028.41;5032843;28;20034;-63
2022/03/22 11:52:11;;;;;;;9.32;5.97;;;;;;;21.46;44.87;103019.38;5032423;28;20041;-62